createdAt,value
2023-02-25T00:02:03.161Z,6.36
2023-02-25T00:04:56.608Z,6.35
2023-02-25T00:07:33.394Z,6.33
2023-02-25T00:10:01.690Z,6.31
2023-02-25T00:12:44.174Z,6.32
2023-02-25T00:15:19.355Z,6.30
2023-02-25T00:17:59.641Z,6.28
2023-02-25T00:20:49.407Z,6.26
2023-02-25T00:23:42.959Z,6.26
2023-02-25T00:26:19.043Z,6.24
2023-02-25T00:28:55.256Z,6.19
2023-02-25T00:31:35.636Z,6.18
2023-02-25T00:34:15.774Z,6.18
2023-02-25T00:36:57.715Z,6.16
2023-02-25T00:39:45.568Z,6.17
2023-02-25T00:42:24.065Z,6.11
2023-02-25T00:45:14.536Z,6.08
2023-02-25T00:47:47.044Z,6.06
2023-02-25T00:50:27.337Z,6.04
2023-02-25T00:53:10.582Z,6.04
2023-02-25T00:56:00.255Z,6.04
2023-02-25T00:58:32.953Z,6.06
2023-02-25T01:01:27.506Z,6.09
2023-02-25T01:04:01.006Z,6.07
2023-02-25T01:06:39.036Z,6.05
2023-02-25T01:09:15.385Z,6.06
2023-02-25T01:11:58.376Z,6.03
2023-02-25T01:14:30.519Z,5.98
2023-02-25T01:17:26.133Z,5.95
2023-02-25T01:19:58.914Z,5.98
2023-02-25T01:22:39.301Z,5.95
2023-02-25T01:25:19.101Z,5.93
2023-02-25T01:27:59.090Z,5.94
2023-02-25T01:30:39.637Z,5.94
2023-02-25T01:33:13.171Z,5.89
2023-02-25T01:35:46.927Z,5.87
2023-02-25T01:38:31.441Z,5.87
2023-02-25T01:41:10.302Z,5.86
2023-02-25T01:43:43.171Z,5.83
2023-02-25T01:46:36.391Z,5.82
2023-02-25T01:49:11.628Z,5.81
2023-02-25T01:51:45.102Z,5.80
2023-02-25T01:54:25.780Z,5.79
2023-02-25T01:57:00.699Z,5.75
2023-02-25T01:59:33.396Z,5.78
2023-02-25T02:02:01.501Z,5.75
2023-02-25T02:04:34.602Z,5.73
2023-02-25T02:07:02.599Z,5.73
2023-02-25T02:09:55.754Z,5.74
2023-02-25T02:12:30.971Z,5.72
2023-02-25T02:15:01.991Z,5.71
2023-02-25T02:17:35.003Z,5.68
2023-02-25T02:20:21.576Z,5.66
2023-02-25T02:23:23.212Z,5.60
2023-02-25T02:26:47.139Z,5.61
2023-02-25T02:29:38.533Z,5.59
2023-02-25T02:32:26.412Z,5.59
2023-02-25T02:35:23.687Z,5.56
2023-02-25T02:37:58.462Z,5.58
2023-02-25T02:40:45.741Z,5.58
2023-02-25T02:43:18.796Z,5.61
2023-02-25T02:46:28.971Z,5.58
2023-02-25T02:49:18.404Z,5.60
2023-02-25T02:51:59.911Z,5.60
2023-02-25T02:54:33.494Z,5.58
2023-02-25T02:57:29.263Z,5.55
2023-02-25T03:00:19.586Z,5.55
2023-02-25T03:03:21.444Z,5.46
2023-02-25T03:05:54.423Z,5.46
2023-02-25T03:08:33.612Z,5.41
2023-02-25T03:11:13.790Z,5.47
2023-02-25T03:13:46.924Z,5.44
2023-02-25T03:16:31.646Z,5.42
2023-02-25T03:19:19.711Z,5.46
2023-02-25T03:21:59.574Z,5.49
2023-02-25T03:24:36.740Z,5.43
2023-02-25T03:27:46.285Z,5.49
2023-02-25T03:30:18.648Z,5.50
2023-02-25T03:32:49.244Z,5.44
2023-02-25T03:35:31.590Z,5.40
2023-02-25T03:38:21.089Z,5.44
2023-02-25T03:40:58.406Z,5.47
2023-02-25T03:43:43.414Z,5.44
2023-02-25T03:46:17.261Z,5.44
2023-02-25T03:48:58.650Z,5.47
2023-02-25T03:51:44.213Z,5.46
2023-02-25T03:54:17.797Z,5.49
2023-02-25T03:56:50.235Z,5.44
2023-02-25T03:59:18.734Z,5.43
2023-02-25T04:02:12.682Z,5.43
2023-02-25T04:05:14.903Z,5.42
2023-02-25T04:08:03.392Z,5.43
2023-02-25T04:10:36.309Z,5.45
2023-02-25T04:13:12.479Z,5.42
2023-02-25T04:15:52.949Z,5.37
2023-02-25T04:18:27.894Z,5.38
2023-02-25T04:21:03.824Z,5.41
2023-02-25T04:23:37.406Z,5.46
2023-02-25T04:26:09.943Z,5.46
2023-02-25T04:28:43.050Z,5.48
2023-02-25T04:31:16.082Z,5.41
2023-02-25T04:33:55.044Z,5.46
2023-02-25T04:39:38.199Z,5.56
2023-02-25T04:42:17.401Z,5.46
2023-02-25T04:44:55.228Z,5.47
2023-02-25T04:47:27.870Z,5.49
2023-02-25T04:50:03.555Z,5.50
2023-02-25T04:52:37.334Z,5.48
2023-02-25T04:55:14.136Z,5.50
2023-02-25T04:57:45.155Z,5.52
2023-02-25T05:00:48.722Z,5.51
2023-02-25T05:03:26.815Z,5.51
2023-02-25T05:05:57.625Z,5.53
2023-02-25T05:08:54.238Z,5.51
2023-02-25T05:11:41.702Z,5.52
2023-02-25T05:14:20.159Z,5.53
2023-02-25T05:16:58.416Z,5.53
2023-02-25T05:19:46.458Z,5.52
2023-02-25T05:22:36.940Z,5.54
2023-02-25T05:25:05.593Z,5.52
2023-02-25T05:27:33.915Z,5.49
2023-02-25T05:30:20.952Z,5.46
2023-02-25T05:32:59.317Z,5.45
2023-02-25T05:35:42.173Z,5.42
2023-02-25T05:38:16.792Z,5.40
2023-02-25T05:40:51.668Z,5.35
2023-02-25T05:43:26.860Z,5.36
2023-02-25T05:46:00.517Z,5.33
2023-02-25T05:48:34.543Z,5.33
2023-02-25T05:51:04.539Z,5.29
2023-02-25T05:53:40.366Z,5.26
2023-02-25T05:56:15.933Z,5.26
2023-02-25T05:59:00.229Z,5.25
2023-02-25T06:01:33.862Z,5.25
2023-02-25T06:04:11.212Z,5.25
2023-02-25T06:06:44.109Z,5.25
2023-02-25T06:09:22.109Z,5.22
2023-02-25T06:11:57.374Z,5.24
2023-02-25T06:14:40.734Z,5.24
2023-02-25T06:17:13.814Z,5.24
2023-02-25T06:19:42.476Z,5.27
2023-02-25T06:22:32.074Z,5.26
2023-02-25T06:25:14.815Z,5.29
2023-02-25T06:27:56.159Z,5.27
2023-02-25T06:30:36.001Z,5.26
2023-02-25T06:33:11.855Z,5.27
2023-02-25T06:35:47.252Z,5.27
2023-02-25T06:38:23.986Z,5.27
2023-02-25T06:41:18.613Z,5.28
2023-02-25T06:43:52.508Z,5.26
2023-02-25T06:46:39.475Z,5.27
2023-02-25T06:49:27.056Z,5.27
2023-02-25T06:52:09.677Z,5.27
2023-02-25T06:54:40.427Z,5.29
2023-02-25T06:57:11.123Z,5.32
2023-02-25T06:59:54.716Z,5.34
2023-02-25T07:02:36.612Z,5.34
2023-02-25T07:05:16.721Z,5.31
2023-02-25T07:08:08.257Z,5.29
2023-02-25T07:10:43.158Z,5.28
2023-02-25T07:13:45.045Z,5.22
2023-02-25T07:16:21.269Z,5.21
2023-02-25T07:18:57.653Z,5.22
2023-02-25T07:21:32.177Z,5.23
2023-02-25T07:24:08.973Z,5.22
2023-02-25T07:26:59.005Z,5.30
2023-02-25T07:29:37.184Z,5.37
2023-02-25T07:32:13.231Z,5.39
2023-02-25T07:34:53.492Z,5.41
2023-02-25T07:37:24.816Z,5.44
2023-02-25T07:40:23.706Z,5.44
2023-02-25T07:43:01.520Z,5.45
2023-02-25T07:45:37.579Z,5.44
2023-02-25T07:48:20.043Z,5.40
2023-02-25T07:50:57.507Z,5.39
2023-02-25T07:53:31.000Z,5.45
2023-02-25T07:56:03.098Z,5.46
2023-02-25T07:58:43.793Z,5.47
2023-02-25T08:01:35.845Z,5.46
2023-02-25T08:04:08.961Z,5.47
2023-02-25T08:06:47.332Z,5.45
2023-02-25T08:09:35.404Z,5.40
2023-02-25T08:15:01.464Z,5.48
2023-02-25T08:17:37.965Z,5.52
2023-02-25T08:20:23.102Z,5.57
2023-02-25T08:23:00.078Z,5.61
2023-02-25T08:25:33.351Z,5.62
2023-02-25T08:28:08.738Z,5.63
2023-02-25T08:30:43.482Z,5.65
2023-02-25T08:33:25.155Z,5.64
2023-02-25T08:36:07.801Z,5.73
2023-02-25T08:38:43.723Z,6.09
2023-02-25T08:41:31.182Z,6.31
2023-02-25T08:44:09.497Z,6.37
2023-02-25T08:46:42.765Z,6.30
2023-02-25T08:49:22.321Z,6.20
2023-02-25T08:52:20.329Z,6.11
2023-02-25T08:54:56.985Z,6.01
2023-02-25T08:57:31.974Z,5.94
2023-02-25T09:00:07.774Z,5.86
2023-02-25T09:02:42.432Z,5.80
2023-02-25T09:05:25.791Z,5.73
2023-02-25T09:07:54.153Z,5.72
2023-02-25T09:10:25.186Z,5.66
2023-02-25T09:12:54.235Z,5.64
2023-02-25T09:15:27.032Z,5.61
2023-02-25T09:17:59.796Z,5.58
2023-02-25T09:20:30.655Z,5.60
2023-02-25T09:22:59.286Z,5.58
2023-02-25T09:25:33.497Z,5.60
2023-02-25T09:28:09.286Z,5.60
2023-02-25T09:30:43.139Z,5.60
2023-02-25T09:33:13.498Z,5.61
2023-02-25T09:35:49.302Z,5.61
2023-02-25T09:38:23.003Z,5.57
2023-02-25T09:40:59.157Z,5.58
2023-02-25T09:43:40.868Z,5.59
2023-02-25T09:46:14.780Z,5.56
2023-02-25T09:48:52.079Z,5.53
2023-02-25T09:51:23.698Z,5.54
2023-02-25T09:54:25.349Z,5.58
2023-02-25T09:57:00.536Z,5.62
2023-02-25T09:59:35.630Z,5.61
2023-02-25T10:02:37.700Z,5.59
2023-02-25T10:05:06.184Z,5.60
2023-02-25T10:07:43.661Z,5.60
2023-02-25T10:10:17.659Z,5.57
2023-02-25T10:13:13.703Z,5.53
2023-02-25T10:15:53.381Z,5.52
2023-02-25T10:18:43.534Z,5.49
2023-02-25T10:21:32.507Z,5.52
2023-02-25T10:24:07.803Z,5.54
2023-02-25T10:26:41.470Z,5.56
2023-02-25T10:29:32.644Z,5.52
2023-02-25T10:32:21.732Z,5.50
2023-02-25T10:35:00.576Z,5.51
2023-02-25T10:37:36.987Z,5.56
2023-02-25T10:40:06.522Z,5.58
2023-02-25T10:42:45.414Z,5.61
2023-02-25T10:45:28.721Z,5.57
2023-02-25T10:48:09.574Z,5.58
2023-02-25T10:51:02.936Z,5.55
2023-02-25T10:53:30.819Z,5.57
2023-02-25T10:55:58.673Z,5.59
2023-02-25T10:58:39.387Z,5.59
2023-02-25T11:01:44.138Z,5.61
2023-02-25T11:04:33.941Z,5.67
2023-02-25T11:07:34.979Z,5.67
2023-02-25T11:10:26.377Z,5.67
2023-02-25T11:12:59.974Z,5.67
2023-02-25T11:15:43.833Z,5.68
2023-02-25T11:18:33.891Z,5.65
2023-02-25T11:21:16.642Z,5.67
2023-02-25T11:23:45.424Z,5.65
2023-02-25T11:26:31.379Z,5.69
2023-02-25T11:29:33.354Z,5.70
2023-02-25T11:32:33.322Z,5.70
2023-02-25T11:35:10.296Z,5.73
2023-02-25T11:37:48.711Z,5.76
2023-02-25T11:40:33.406Z,5.72
2023-02-25T11:43:33.689Z,5.72
2023-02-25T11:46:10.285Z,5.72
2023-02-25T11:48:52.513Z,5.71
2023-02-25T11:51:40.885Z,5.72
2023-02-25T11:54:35.472Z,5.74
2023-02-25T11:57:26.310Z,5.74
2023-02-25T12:00:20.970Z,5.71
2023-02-25T12:03:20.588Z,5.72
2023-02-25T12:05:57.941Z,5.75
2023-02-25T12:08:46.099Z,5.76
2023-02-25T12:11:25.241Z,5.79
2023-02-25T12:14:00.944Z,5.80
2023-02-25T12:16:55.290Z,5.81
2023-02-25T12:20:09.591Z,5.85
2023-02-25T12:23:05.500Z,5.89
2023-02-25T12:26:01.498Z,5.90
2023-02-25T12:29:06.451Z,5.91
2023-02-25T12:32:04.461Z,5.88
2023-02-25T12:35:10.081Z,5.89
2023-02-25T12:38:19.386Z,5.86
2023-02-25T12:41:08.450Z,5.86
2023-02-25T12:43:57.666Z,5.85
2023-02-25T12:46:36.655Z,5.84
2023-02-25T12:49:17.124Z,5.84
2023-02-25T12:52:12.194Z,5.85
2023-02-25T12:55:11.446Z,5.83
2023-02-25T12:58:17.812Z,5.84
2023-02-25T13:01:21.727Z,5.81
2023-02-25T13:04:11.144Z,5.79
2023-02-25T13:07:23.796Z,5.75
2023-02-25T13:10:23.356Z,5.79
2023-02-25T13:13:00.385Z,5.81
2023-02-25T13:15:59.455Z,5.81
2023-02-25T13:19:00.353Z,5.85
2023-02-25T13:22:02.341Z,5.85
2023-02-25T13:24:41.284Z,5.83
2023-02-25T13:27:27.575Z,5.81
2023-02-25T13:30:27.881Z,5.79
2023-02-25T13:33:05.914Z,5.79
2023-02-25T13:36:03.780Z,5.81
2023-02-25T13:38:44.405Z,5.81
2023-02-25T13:41:37.286Z,5.84
2023-02-25T13:45:10.430Z,5.83
2023-02-25T13:48:26.521Z,5.81
2023-02-25T13:51:31.720Z,5.85
2023-02-25T13:54:26.332Z,5.84
2023-02-25T13:57:17.437Z,5.84
2023-02-25T14:00:10.575Z,5.88
2023-02-25T14:03:36.709Z,5.87
2023-02-25T14:06:32.533Z,5.85
2023-02-25T14:09:21.435Z,5.86
2023-02-25T14:12:18.378Z,5.86
2023-02-25T14:15:24.055Z,5.87
2023-02-25T14:18:13.523Z,5.86
2023-02-25T14:20:55.995Z,5.87
2023-02-25T14:23:36.644Z,5.87
2023-02-25T14:26:35.095Z,5.83
2023-02-25T14:29:54.261Z,5.80
2023-02-25T14:33:02.777Z,5.71
2023-02-25T14:36:17.972Z,5.64
2023-02-25T14:39:03.848Z,5.60
2023-02-25T14:42:10.240Z,5.59
2023-02-25T14:44:43.427Z,5.61
2023-02-25T14:47:41.783Z,5.65
2023-02-25T14:50:31.905Z,5.65
2023-02-25T14:53:09.767Z,5.66
2023-02-25T14:56:02.856Z,5.68
2023-02-25T14:59:08.583Z,5.72
2023-02-25T15:02:43.410Z,5.72
2023-02-25T15:05:37.674Z,5.74
2023-02-25T15:08:43.595Z,5.77
2023-02-25T15:11:43.866Z,5.79
2023-02-25T15:14:39.881Z,5.72
2023-02-25T15:17:36.312Z,5.69
2023-02-25T15:20:11.359Z,5.69
2023-02-25T15:23:15.631Z,5.63
2023-02-25T15:26:15.047Z,5.63
2023-02-25T15:28:51.148Z,5.62
2023-02-25T15:31:32.546Z,5.63
2023-02-25T15:34:22.533Z,5.65
2023-02-25T15:36:56.820Z,5.66
2023-02-25T15:40:14.379Z,5.68
2023-02-25T15:43:20.093Z,5.67
2023-02-25T15:46:04.270Z,5.67
2023-02-25T15:48:57.158Z,5.69
2023-02-25T15:51:52.807Z,5.68
2023-02-25T15:54:39.647Z,5.68
2023-02-25T15:57:15.903Z,5.69
2023-02-25T15:59:58.929Z,5.64
2023-02-25T16:02:44.550Z,5.65
2023-02-25T16:05:25.219Z,5.62
2023-02-25T16:08:22.050Z,5.60
2023-02-25T16:11:00.009Z,5.63
2023-02-25T16:13:34.627Z,5.63
2023-02-25T16:16:07.868Z,5.61
2023-02-25T16:18:55.476Z,5.61
2023-02-25T16:22:09.342Z,5.59
2023-02-25T16:24:40.600Z,5.59
2023-02-25T16:27:23.832Z,5.59
2023-02-25T16:30:13.902Z,5.59
2023-02-25T16:32:51.634Z,5.57
2023-02-25T16:36:06.946Z,5.56
2023-02-25T16:38:48.305Z,5.53
2023-02-25T16:41:39.478Z,5.52
2023-02-25T16:44:40.238Z,5.50
2023-02-25T16:47:34.935Z,5.50
2023-02-25T16:50:17.537Z,5.48
2023-02-25T16:53:02.253Z,5.47
2023-02-25T16:55:45.269Z,5.45
2023-02-25T16:58:22.882Z,5.46
2023-02-25T17:01:19.312Z,5.48
2023-02-25T17:03:56.029Z,5.47
2023-02-25T17:06:30.347Z,5.43
2023-02-25T17:09:04.995Z,5.43
2023-02-25T17:11:48.445Z,5.44
2023-02-25T17:14:23.168Z,5.44
2023-02-25T17:16:54.349Z,5.42
2023-02-25T17:19:47.102Z,5.40
2023-02-25T17:22:25.654Z,5.38
2023-02-25T17:24:57.005Z,5.38
2023-02-25T17:27:32.981Z,5.38
2023-02-25T17:30:08.775Z,5.37
2023-02-25T17:32:37.124Z,5.34
2023-02-25T17:35:08.490Z,5.35
2023-02-25T17:37:44.078Z,5.31
2023-02-25T17:40:17.720Z,5.30
2023-02-25T17:43:13.869Z,5.29
2023-02-25T17:45:52.221Z,5.30
2023-02-25T17:48:34.658Z,5.27
2023-02-25T17:51:07.493Z,5.24
2023-02-25T17:53:48.032Z,5.25
2023-02-25T17:56:35.416Z,5.25
2023-02-25T17:59:36.863Z,5.21
2023-02-25T18:02:28.466Z,5.22
2023-02-25T18:05:23.041Z,5.20
2023-02-25T18:08:10.757Z,5.18
2023-02-25T18:10:59.252Z,5.17
2023-02-25T18:13:33.260Z,5.14
2023-02-25T18:16:31.420Z,5.13
2023-02-25T18:19:06.042Z,5.16
2023-02-25T18:21:40.778Z,5.11
2023-02-25T18:24:37.430Z,5.12
2023-02-25T18:27:37.240Z,5.11
2023-02-25T18:30:25.493Z,5.11
2023-02-25T18:33:05.620Z,5.06
2023-02-25T18:35:36.730Z,5.02
2023-02-25T18:38:11.432Z,4.97
2023-02-25T18:40:58.323Z,4.98
2023-02-25T18:43:41.383Z,4.96
2023-02-25T18:46:12.642Z,4.95
2023-02-25T18:48:59.743Z,4.95
2023-02-25T18:51:48.738Z,4.89
2023-02-25T18:54:28.944Z,4.90
2023-02-25T18:57:10.086Z,4.88
2023-02-25T18:59:44.938Z,4.90
2023-02-25T19:02:33.307Z,4.87
2023-02-25T19:05:17.811Z,4.86
2023-02-25T19:08:04.455Z,4.83
2023-02-25T19:10:43.045Z,4.82
2023-02-25T19:13:30.745Z,4.81
2023-02-25T19:16:11.674Z,4.81
2023-02-25T19:18:51.718Z,4.81
2023-02-25T19:21:21.704Z,4.79
2023-02-25T19:24:01.465Z,4.72
2023-02-25T19:26:48.584Z,4.65
2023-02-25T19:29:48.516Z,4.52
2023-02-25T19:32:17.967Z,4.51
2023-02-25T19:34:49.498Z,4.48
2023-02-25T19:37:22.625Z,4.47
2023-02-25T19:39:54.900Z,4.45
2023-02-25T19:42:41.250Z,4.43
2023-02-25T19:45:17.728Z,4.39
2023-02-25T19:47:46.429Z,4.30
2023-02-25T19:50:18.432Z,4.22
2023-02-25T19:52:59.256Z,4.21
2023-02-25T19:55:34.815Z,4.17
2023-02-25T19:58:09.905Z,4.14
2023-02-25T20:01:01.094Z,4.09
2023-02-25T20:03:35.013Z,4.06
2023-02-25T20:06:13.568Z,4.05
2023-02-25T20:08:47.080Z,4.03
2023-02-25T20:11:19.538Z,4.01
2023-02-25T20:14:07.779Z,4.02
2023-02-25T20:16:40.985Z,4.00
2023-02-25T20:19:14.550Z,3.99
2023-02-25T20:21:54.257Z,4.01
2023-02-25T20:24:38.398Z,4.00
2023-02-25T20:27:17.041Z,3.98
2023-02-25T20:30:04.473Z,3.95
2023-02-25T20:32:38.361Z,3.93
2023-02-25T20:35:18.391Z,3.90
2023-02-25T20:38:12.535Z,3.90
2023-02-25T20:41:03.987Z,3.91
2023-02-25T20:43:47.046Z,3.90
2023-02-25T20:46:29.779Z,3.91
2023-02-25T20:49:19.529Z,3.87
2023-02-25T20:51:59.938Z,3.85
2023-02-25T20:54:47.644Z,3.86
2023-02-25T20:57:38.127Z,3.86
2023-02-25T21:00:21.016Z,3.87
2023-02-25T21:03:02.520Z,3.88
2023-02-25T21:05:38.494Z,3.88
2023-02-25T21:08:15.380Z,3.91
2023-02-25T21:10:53.824Z,3.91
2023-02-25T21:13:29.455Z,3.93
2023-02-25T21:16:07.671Z,3.96
2023-02-25T21:18:42.748Z,3.95
2023-02-25T21:21:14.678Z,3.94
2023-02-25T21:23:59.143Z,3.94
2023-02-25T21:26:48.555Z,3.94
2023-02-25T21:29:42.109Z,3.93
2023-02-25T21:32:38.514Z,3.92
2023-02-25T21:35:26.310Z,3.92
2023-02-25T21:38:04.493Z,3.88
2023-02-25T21:40:34.162Z,3.82
2023-02-25T21:43:20.328Z,3.76
2023-02-25T21:46:01.336Z,3.63
2023-02-25T21:48:29.983Z,3.52
2023-02-25T21:51:13.642Z,3.37
2023-02-25T21:53:47.590Z,3.22
2023-02-25T21:56:38.908Z,3.15
2023-02-25T21:59:14.250Z,3.08
2023-02-25T22:01:48.783Z,3.00
2023-02-25T22:04:34.166Z,2.97
2023-02-25T22:07:08.160Z,2.89
2023-02-25T22:09:41.436Z,2.84
2023-02-25T22:12:11.826Z,2.76
2023-02-25T22:14:44.806Z,2.72
2023-02-25T22:17:23.386Z,2.60
2023-02-25T22:19:56.417Z,2.56
2023-02-25T22:22:35.640Z,2.53
2023-02-25T22:25:12.434Z,2.48
2023-02-25T22:27:43.889Z,2.43
2023-02-25T22:30:26.417Z,2.40
2023-02-25T22:33:03.787Z,2.35
2023-02-25T22:35:37.405Z,2.34
2023-02-25T22:38:12.383Z,2.32
2023-02-25T22:40:45.881Z,2.29
2023-02-25T22:43:16.767Z,2.29
2023-02-25T22:45:47.746Z,2.31
2023-02-25T22:48:29.701Z,2.25
2023-02-25T22:51:02.722Z,2.21
2023-02-25T22:53:52.385Z,2.21
2023-02-25T22:56:24.835Z,2.18
2023-02-25T22:59:03.511Z,2.15
2023-02-25T23:01:41.000Z,2.10
2023-02-25T23:04:19.812Z,2.07
2023-02-25T23:06:52.857Z,2.02
2023-02-25T23:09:34.174Z,1.96
2023-02-25T23:12:21.440Z,1.95
2023-02-25T23:14:54.610Z,1.93
2023-02-25T23:17:32.919Z,1.91
2023-02-25T23:20:24.230Z,1.92
2023-02-25T23:22:55.327Z,1.88
2023-02-25T23:25:31.089Z,1.89
2023-02-25T23:28:18.003Z,1.92
2023-02-25T23:31:10.365Z,1.89
2023-02-25T23:33:54.423Z,1.88
2023-02-25T23:36:29.326Z,1.92
2023-02-25T23:39:01.625Z,1.90
2023-02-25T23:41:36.575Z,1.89
2023-02-25T23:44:21.740Z,1.93
2023-02-25T23:46:54.395Z,1.91
2023-02-25T23:49:31.454Z,1.92
2023-02-25T23:52:07.069Z,1.92
2023-02-25T23:54:38.034Z,1.93
2023-02-25T23:57:21.446Z,1.94
2023-02-25T23:59:58.721Z,1.96
